Terminal Aerodrome Forecast
Issued by NWS

Home | Current Version | Previous Version | Text Only | Print | Product List | Glossary On
Versions: 1 2 3 4 5 6 7 8 9 10 11 12 13 14
000
FTUS46 KSEW 180000 RRA
TAFHQM
TAF
KHQM 180000Z 1800/1824 00000KT 5SM BR VCSH OVC040
     FM180600 09005KT 5SM BR BKN015 BKN040=

USA.gov is the U.S. government's official web portal to all federal, state and local government web resources and services.